sensor_id;sensor_type;location;lat;lon;timestamp;temperature;humidity
40702;DHT22;26387;50.114;8.662;2023-02-20T00:00:16;12.10;90.90
40702;DHT22;26387;50.114;8.662;2023-02-20T00:02:42;12.00;91.00
40702;DHT22;26387;50.114;8.662;2023-02-20T00:05:07;12.00;91.30
40702;DHT22;26387;50.114;8.662;2023-02-20T00:07:32;11.90;91.10
40702;DHT22;26387;50.114;8.662;2023-02-20T00:58:38;11.90;91.20
40702;DHT22;26387;50.114;8.662;2023-02-20T01:01:04;11.30;92.60
40702;DHT22;26387;50.114;8.662;2023-02-20T01:03:29;11.30;92.50
40702;DHT22;26387;50.114;8.662;2023-02-20T01:05:55;11.20;92.60
40702;DHT22;26387;50.114;8.662;2023-02-20T01:08:20;11.20;92.50
40702;DHT22;26387;50.114;8.662;2023-02-20T01:10:46;11.20;92.60
40702;DHT22;26387;50.114;8.662;2023-02-20T01:13:11;11.10;92.70
40702;DHT22;26387;50.114;8.662;2023-02-20T01:15:37;11.10;92.60
40702;DHT22;26387;50.114;8.662;2023-02-20T01:18:02;11.10;92.80
40702;DHT22;26387;50.114;8.662;2023-02-20T01:20:30;11.10;92.80
40702;DHT22;26387;50.114;8.662;2023-02-20T01:22:55;11.10;92.80
40702;DHT22;26387;50.114;8.662;2023-02-20T02:11:33;11.00;92.90
40702;DHT22;26387;50.114;8.662;2023-02-20T02:14:01;10.60;92.60
40702;DHT22;26387;50.114;8.662;2023-02-20T02:24:14;10.60;92.90
40702;DHT22;26387;50.114;8.662;2023-02-20T02:29:47;10.40;93.20
40702;DHT22;26387;50.114;8.662;2023-02-20T02:37:55;10.40;92.80
40702;DHT22;26387;50.114;8.662;2023-02-20T02:47:54;10.30;92.80
40702;DHT22;26387;50.114;8.662;2023-02-20T02:50:22;10.20;93.00
40702;DHT22;26387;50.114;8.662;2023-02-20T02:52:49;10.20;93.00
40702;DHT22;26387;50.114;8.662;2023-02-20T02:55:20;10.20;93.30
40702;DHT22;26387;50.114;8.662;2023-02-20T02:57:46;10.10;93.00
40702;DHT22;26387;50.114;8.662;2023-02-20T03:00:16;10.00;93.50
40702;DHT22;26387;50.114;8.662;2023-02-20T03:02:45;10.10;93.40
40702;DHT22;26387;50.114;8.662;2023-02-20T03:05:12;10.10;93.40
40702;DHT22;26387;50.114;8.662;2023-02-20T03:07:39;10.20;93.30
40702;DHT22;26387;50.114;8.662;2023-02-20T03:10:06;10.30;93.20
40702;DHT22;26387;50.114;8.662;2023-02-20T03:12:32;10.30;93.10
40702;DHT22;26387;50.114;8.662;2023-02-20T03:15:10;10.30;93.10
40702;DHT22;26387;50.114;8.662;2023-02-20T03:20:35;10.30;92.90
40702;DHT22;26387;50.114;8.662;2023-02-20T03:23:02;10.30;92.90
40702;DHT22;26387;50.114;8.662;2023-02-20T03:25:33;10.30;93.00
40702;DHT22;26387;50.114;8.662;2023-02-20T03:28:00;10.20;93.00
40702;DHT22;26387;50.114;8.662;2023-02-20T03:32:57;10.20;93.00
40702;DHT22;26387;50.114;8.662;2023-02-20T03:35:45;10.20;93.10
40702;DHT22;26387;50.114;8.662;2023-02-20T03:38:30;10.20;92.90
40702;DHT22;26387;50.114;8.662;2023-02-20T03:41:15;10.20;92.70
40702;DHT22;26387;50.114;8.662;2023-02-20T03:44:00;10.20;92.80
40702;DHT22;26387;50.114;8.662;2023-02-20T03:46:28;10.20;92.70
40702;DHT22;26387;50.114;8.662;2023-02-20T03:48:59;10.20;92.70
40702;DHT22;26387;50.114;8.662;2023-02-20T03:51:27;10.30;92.70
40702;DHT22;26387;50.114;8.662;2023-02-20T03:53:52;10.20;92.70
40702;DHT22;26387;50.114;8.662;2023-02-20T03:56:21;10.10;92.80
40702;DHT22;26387;50.114;8.662;2023-02-20T03:58:50;10.00;93.00
40702;DHT22;26387;50.114;8.662;2023-02-20T04:01:18;9.90;93.20
40702;DHT22;26387;50.114;8.662;2023-02-20T04:03:46;9.80;93.30
40702;DHT22;26387;50.114;8.662;2023-02-20T04:06:12;9.70;93.40
40702;DHT22;26387;50.114;8.662;2023-02-20T08:31:41;9.70;93.50
40702;DHT22;26387;50.114;8.662;2023-02-20T08:34:07;10.40;95.20
40702;DHT22;26387;50.114;8.662;2023-02-20T08:36:33;10.40;94.90
40702;DHT22;26387;50.114;8.662;2023-02-20T08:41:25;10.60;94.50
40702;DHT22;26387;50.114;8.662;2023-02-20T08:48:43;11.00;93.90
40702;DHT22;26387;50.114;8.662;2023-02-20T08:51:08;10.90;94.00
40702;DHT22;26387;50.114;8.662;2023-02-20T08:53:35;10.90;94.30
40702;DHT22;26387;50.114;8.662;2023-02-20T08:56:01;10.90;94.10
40702;DHT22;26387;50.114;8.662;2023-02-20T08:58:26;11.00;94.20
40702;DHT22;26387;50.114;8.662;2023-02-20T09:00:52;11.00;94.10
40702;DHT22;26387;50.114;8.662;2023-02-20T09:03:18;11.10;94.00
40702;DHT22;26387;50.114;8.662;2023-02-20T09:05:44;11.20;93.70
40702;DHT22;26387;50.114;8.662;2023-02-20T09:08:10;11.10;93.90
40702;DHT22;26387;50.114;8.662;2023-02-20T09:10:35;11.10;94.10
40702;DHT22;26387;50.114;8.662;2023-02-20T09:13:01;11.30;93.90
40702;DHT22;26387;50.114;8.662;2023-02-20T09:17:53;11.50;94.10
40702;DHT22;26387;50.114;8.662;2023-02-20T09:20:19;11.90;93.30
40702;DHT22;26387;50.114;8.662;2023-02-20T10:45:52;12.00;93.00
40702;DHT22;26387;50.114;8.662;2023-02-20T10:48:19;13.10;90.50
40702;DHT22;26387;50.114;8.662;2023-02-20T10:53:33;13.00;90.50
40702;DHT22;26387;50.114;8.662;2023-02-20T10:58:27;13.10;89.90
40702;DHT22;26387;50.114;8.662;2023-02-20T11:00:54;13.20;90.30
40702;DHT22;26387;50.114;8.662;2023-02-20T11:03:22;13.20;90.40
40702;DHT22;26387;50.114;8.662;2023-02-20T14:03:41;13.30;90.50
40702;DHT22;26387;50.114;8.662;2023-02-20T16:05:24;16.90;61.10
40702;DHT22;26387;50.114;8.662;2023-02-20T16:07:50;15.60;68.20
40702;DHT22;26387;50.114;8.662;2023-02-20T18:22:05;15.40;67.30
40702;DHT22;26387;50.114;8.662;2023-02-20T18:24:31;14.20;72.60
40702;DHT22;26387;50.114;8.662;2023-02-20T18:26:57;14.10;73.70
40702;DHT22;26387;50.114;8.662;2023-02-20T18:29:23;14.00;73.00
40702;DHT22;26387;50.114;8.662;2023-02-20T18:31:49;14.00;73.20
40702;DHT22;26387;50.114;8.662;2023-02-20T18:34:15;13.90;73.30
40702;DHT22;26387;50.114;8.662;2023-02-20T18:36:41;13.90;73.80
40702;DHT22;26387;50.114;8.662;2023-02-20T18:39:07;13.90;73.80
40702;DHT22;26387;50.114;8.662;2023-02-20T18:41:34;13.90;74.10
40702;DHT22;26387;50.114;8.662;2023-02-20T18:44:00;13.80;74.40
40702;DHT22;26387;50.114;8.662;2023-02-20T18:46:29;13.80;74.60
40702;DHT22;26387;50.114;8.662;2023-02-20T18:48:55;13.80;74.70
40702;DHT22;26387;50.114;8.662;2023-02-20T18:51:25;13.80;74.80
40702;DHT22;26387;50.114;8.662;2023-02-20T18:53:50;13.70;74.80
40702;DHT22;26387;50.114;8.662;2023-02-20T18:56:16;13.80;75.10
40702;DHT22;26387;50.114;8.662;2023-02-20T18:58:41;13.70;75.50
40702;DHT22;26387;50.114;8.662;2023-02-20T19:01:07;13.70;75.40
40702;DHT22;26387;50.114;8.662;2023-02-20T19:03:32;13.70;75.90
40702;DHT22;26387;50.114;8.662;2023-02-20T19:05:58;13.70;75.80
40702;DHT22;26387;50.114;8.662;2023-02-20T19:25:27;13.60;76.10
40702;DHT22;26387;50.114;8.662;2023-02-20T19:27:53;13.40;77.60
40702;DHT22;26387;50.114;8.662;2023-02-20T19:42:33;13.40;77.50
40702;DHT22;26387;50.114;8.662;2023-02-20T19:44:59;13.20;78.20
40702;DHT22;26387;50.114;8.662;2023-02-20T19:47:24;13.20;78.50
40702;DHT22;26387;50.114;8.662;2023-02-20T19:49:51;13.10;78.50
40702;DHT22;26387;50.114;8.662;2023-02-20T19:52:17;13.10;78.80
40702;DHT22;26387;50.114;8.662;2023-02-20T19:54:46;13.10;78.70
40702;DHT22;26387;50.114;8.662;2023-02-20T19:57:11;13.10;78.70
40702;DHT22;26387;50.114;8.662;2023-02-20T19:59:37;13.20;78.80
40702;DHT22;26387;50.114;8.662;2023-02-20T20:02:03;13.10;78.90
40702;DHT22;26387;50.114;8.662;2023-02-20T20:04:29;13.10;79.20
40702;DHT22;26387;50.114;8.662;2023-02-20T20:06:56;13.00;79.20
40702;DHT22;26387;50.114;8.662;2023-02-20T20:09:22;13.00;79.20
40702;DHT22;26387;50.114;8.662;2023-02-20T20:26:29;12.90;79.40
40702;DHT22;26387;50.114;8.662;2023-02-20T20:28:55;12.70;80.30
40702;DHT22;26387;50.114;8.662;2023-02-20T20:31:22;12.70;80.80
40702;DHT22;26387;50.114;8.662;2023-02-20T20:33:47;12.70;80.70
40702;DHT22;26387;50.114;8.662;2023-02-20T20:36:13;12.70;80.80
40702;DHT22;26387;50.114;8.662;2023-02-20T20:38:38;12.70;81.10
40702;DHT22;26387;50.114;8.662;2023-02-20T20:41:04;12.70;81.20
40702;DHT22;26387;50.114;8.662;2023-02-20T20:43:29;12.70;80.90
40702;DHT22;26387;50.114;8.662;2023-02-20T20:45:55;12.60;81.00
40702;DHT22;26387;50.114;8.662;2023-02-20T20:48:20;12.60;80.90
40702;DHT22;26387;50.114;8.662;2023-02-20T20:50:46;12.60;80.70
40702;DHT22;26387;50.114;8.662;2023-02-20T20:53:11;12.60;80.60
40702;DHT22;26387;50.114;8.662;2023-02-20T20:55:37;12.70;80.80
40702;DHT22;26387;50.114;8.662;2023-02-20T20:58:03;12.60;80.60
40702;DHT22;26387;50.114;8.662;2023-02-20T21:00:30;12.60;80.70
40702;DHT22;26387;50.114;8.662;2023-02-20T21:02:56;12.60;80.80
40702;DHT22;26387;50.114;8.662;2023-02-20T21:05:23;12.60;80.90
40702;DHT22;26387;50.114;8.662;2023-02-20T21:07:49;12.60;80.90
40702;DHT22;26387;50.114;8.662;2023-02-20T21:10:15;12.50;81.00
40702;DHT22;26387;50.114;8.662;2023-02-20T21:12:40;12.50;81.30
40702;DHT22;26387;50.114;8.662;2023-02-20T21:15:06;12.50;81.10
40702;DHT22;26387;50.114;8.662;2023-02-20T21:17:32;12.50;81.10
40702;DHT22;26387;50.114;8.662;2023-02-20T21:19:58;12.50;81.20
40702;DHT22;26387;50.114;8.662;2023-02-20T21:22:24;12.40;81.30
40702;DHT22;26387;50.114;8.662;2023-02-20T21:24:50;12.40;81.50
40702;DHT22;26387;50.114;8.662;2023-02-20T21:27:15;12.40;81.50
40702;DHT22;26387;50.114;8.662;2023-02-20T21:29:41;12.40;81.60
40702;DHT22;26387;50.114;8.662;2023-02-20T21:32:06;12.40;82.30
40702;DHT22;26387;50.114;8.662;2023-02-20T21:34:32;12.30;81.90
40702;DHT22;26387;50.114;8.662;2023-02-20T21:36:57;12.30;82.00
40702;DHT22;26387;50.114;8.662;2023-02-20T21:39:23;12.30;82.10
40702;DHT22;26387;50.114;8.662;2023-02-20T21:41:49;12.40;82.40
40702;DHT22;26387;50.114;8.662;2023-02-20T21:44:33;12.30;82.20
40702;DHT22;26387;50.114;8.662;2023-02-20T21:47:01;12.30;82.50
40702;DHT22;26387;50.114;8.662;2023-02-20T22:22:38;12.20;83.30
40702;DHT22;26387;50.114;8.662;2023-02-20T22:25:22;11.90;84.10
40702;DHT22;26387;50.114;8.662;2023-02-20T22:28:06;11.80;84.40
40702;DHT22;26387;50.114;8.662;2023-02-20T22:30:51;11.80;84.40
40702;DHT22;26387;50.114;8.662;2023-02-20T22:33:35;11.80;84.70
40702;DHT22;26387;50.114;8.662;2023-02-20T22:36:19;11.70;84.80
40702;DHT22;26387;50.114;8.662;2023-02-20T22:39:03;11.80;85.00
40702;DHT22;26387;50.114;8.662;2023-02-20T22:41:48;11.80;84.90
40702;DHT22;26387;50.114;8.662;2023-02-20T22:44:32;11.80;84.80
40702;DHT22;26387;50.114;8.662;2023-02-20T22:47:16;11.70;85.20
40702;DHT22;26387;50.114;8.662;2023-02-20T22:50:00;11.70;85.80
40702;DHT22;26387;50.114;8.662;2023-02-20T22:52:44;11.70;85.80
40702;DHT22;26387;50.114;8.662;2023-02-20T22:55:28;11.70;85.70
40702;DHT22;26387;50.114;8.662;2023-02-20T22:58:13;11.70;85.70
40702;DHT22;26387;50.114;8.662;2023-02-20T23:00:57;11.70;85.70
40702;DHT22;26387;50.114;8.662;2023-02-20T23:03:41;11.70;85.60
40702;DHT22;26387;50.114;8.662;2023-02-20T23:06:25;11.60;85.60
40702;DHT22;26387;50.114;8.662;2023-02-20T23:09:09;11.60;85.70
40702;DHT22;26387;50.114;8.662;2023-02-20T23:11:54;11.60;85.80
40702;DHT22;26387;50.114;8.662;2023-02-20T23:14:38;11.60;85.80
40702;DHT22;26387;50.114;8.662;2023-02-20T23:17:22;11.60;85.80
40702;DHT22;26387;50.114;8.662;2023-02-20T23:20:08;11.50;86.00
40702;DHT22;26387;50.114;8.662;2023-02-20T23:22:53;11.50;86.60
40702;DHT22;26387;50.114;8.662;2023-02-20T23:25:37;11.50;86.30
40702;DHT22;26387;50.114;8.662;2023-02-20T23:28:21;11.40;86.90
40702;DHT22;26387;50.114;8.662;2023-02-20T23:31:06;11.40;86.90
40702;DHT22;26387;50.114;8.662;2023-02-20T23:33:50;11.30;87.20
40702;DHT22;26387;50.114;8.662;2023-02-20T23:36:34;11.30;87.30
